METAR stanice u blizini

 

LYBE - Beograd / Surčin, Srbija
Ažurirano: 11/08/2022 03:00
Vedro
Vedro
 Pravac vetra Z
Vetar: Z 9 km/h
Temperatura: 15°C
Tačka rose: 13°C
Vlažnost: 88%
Pritisak: 1018 hPa
Pregled: Vedro
Vidljivost: greater than 10 km
2022/08/11 01:00 LYBE 110100Z 27005KT CAVOK 15/13 Q1018 NOSIG
LYBT - Beograd / Batajnica, Srbija
Ažurirano: 11/08/2022 03:30
Vedro
Vedro
 Pravac vetra varies
Vetar: varies 4 km/h
Temperatura: 16°C
Tačka rose: 11°C
Vlažnost: 72%
Pritisak: 1018 hPa
Pregled: Vedro
Vidljivost: greater than 10 km
2022/08/11 01:30 LYBT 110130Z VRB02KT CAVOK 16/11 Q1018 NOSIG
LYVR - Vršac, Srbija
Ažurirano: 11/08/2022 03:30
Vedro
Vedro
 Pravac vetra calm
Vetar: Tišina
Temperatura: 14°C
Tačka rose: 14°C
Vlažnost: 100%
Pritisak: 1018 hPa
Pregled: Vedro
Vidljivost: greater than 10 km
2022/08/11 01:30 LYVR 110130Z AUTO 00000KT CAVOK 14/14 Q1018
 
LYKV - Lađevci, Srbija
Ažurirano: 11/08/2022 03:00
Vedro
Vedro
 Pravac vetra varies
Vetar: varies 4 km/h
Temperatura: 19°C
Tačka rose: 14°C
Vlažnost: 73%
Pritisak: 1018 hPa
Pregled: Vedro
Vidljivost: greater than 10 km
2022/08/11 01:00 LYKV 110100Z VRB02KT CAVOK 19/14 Q1018 NOSIG
LYNI - Niš, Srbija
Ažurirano: 11/08/2022 03:30
Vedro
Vedro
 Pravac vetra varies
Vetar: varies 4 km/h
Temperatura: 17°C
Tačka rose: 17°C
Vlažnost: 100%
Pritisak: 1018 hPa
Pregled: Vedro
Vidljivost: greater than 10 km
2022/08/11 01:30 LYNI 110130Z VRB02KT CAVOK 17/17 Q1018 NOSIG
BKPR - Priština, Srbija
Ažurirano: 11/08/2022 03:30
Vedro
Vedro
 Pravac vetra varies
Vetar: varies 4 km/h
Temperatura: 16°C
Tačka rose: 12°C
Vlažnost: 77%
Pritisak: 1019 hPa
Pregled: Vedro
Vidljivost: greater than 10 km
2022/08/11 01:30 BKPR 110130Z VRB02KT CAVOK 16/12 Q1019 NOSIG
 
LHPP - Pecs / Pogany, Hungary
Ažurirano: 11/08/2022 03:15
Vedro
Vedro
 Pravac vetra SI
Vetar: SI 6 km/h
Temperatura: 18°C
Tačka rose: 9°C
Vlažnost: 56%
Pritisak: 1020 hPa
Pregled: Vedro
Vidljivost: greater than 10 km
2022/08/11 01:15 LHPP 110115Z AUTO 04003KT 350V070 CAVOK 18/09 Q1020
LHUD - Szeged, Hungary
Ažurirano: 04/07/2019 01:45
NOT Current
Vedro
Vedro
 Pravac vetra S
Vetar: S 7 km/h
Temperatura: 18°C
Tačka rose: 13°C
Vlažnost: 73%
Pritisak: 1019 hPa
Pregled: Vedro
Vidljivost: greater than 10 km
2019/07/03 23:45 LHUD 032345Z 35004KT CAVOK 18/13 Q1019
LRTR - Timisoara, Romania
Ažurirano: 11/08/2022 03:30
Vedro
Vedro
 Pravac vetra S
Vetar: S 17 km/h
Temperatura: 17°C
Tačka rose: 14°C
Vlažnost: 83%
Pritisak: 1017 hPa
Pregled: Vedro
Vidljivost: greater than 10 km
2022/08/11 01:30 LRTR 110130Z 36009KT CAVOK 17/14 Q1017 NOSIG
 
LRCV - Craiova, Romania
Ažurirano: 11/08/2022 03:30
Slaba kiša, Delimično oblačno
Slaba kiša, Delimično oblačno
 Pravac vetra JI
Vetar: JI 9 km/h
Temperatura: 16°C
Tačka rose: 16°C
Vlažnost: 100%
Pritisak: 1017 hPa
Pregled: Light Rain
Oblaci: Partly Cloudy
Vidljivost: 10 km
Cloud details: Partly Cloudy 1433 m
2022/08/11 01:30 LRCV 110130Z 13005KT 9999 -RA SCT047 16/16 Q1017
LBSF - Sofia, Bulgaria
Ažurirano: 11/08/2022 03:30
Vedro
Vedro
 Pravac vetra ZSZ
Vetar: ZSZ 11 km/h
Temperatura: 17°C
Tačka rose: 14°C
Vlažnost: 83%
Pritisak: 1018 hPa
Oblaci: Vedro
Vidljivost: 10 km
2022/08/11 01:30 LBSF 110130Z AUTO 29006KT 9999 NCD 17/14 Q1018 NOSIG
LWSK - Skoplje, Makedonija
Ažurirano: 11/08/2022 03:30
Vedro
Vedro
 Pravac vetra SI
Vetar: SI 7 km/h
Temperatura: 19°C
Tačka rose: 14°C
Vlažnost: 73%
Pritisak: 1017 hPa
Pregled: Vedro
Vidljivost: greater than 10 km
2022/08/11 01:30 LWSK 110130Z 05004KT 030V090 CAVOK 19/14 Q1017 NOSIG
 
LYPG - Podgorica, Crna Gora
Ažurirano: 11/08/2022 03:30
Partly Cloudy
Partly Cloudy
 Pravac vetra SSI
Vetar: SSI 15 km/h
Temperatura: 27°C
Tačka rose: 12°C
Vlažnost: 39%
Pritisak: 1014 hPa
Oblaci: Partly Cloudy
Vidljivost: 10 km
Cloud details: Few Clouds 1524 m
Partly Cloudy 2438 m
2022/08/11 01:30 LYPG 110130Z 03008KT 350V050 9999 FEW050 SCT080 27/12 Q1014 NOSIG
LQSA - Sarajevo, Bosna i Hercegovina
Ažurirano: 11/08/2022 03:00
Vedro
Vedro
 Pravac vetra ZSZ
Vetar: ZSZ 4 km/h
Temperatura: 17°C
Tačka rose: 15°C
Vlažnost: 88%
Pritisak: 1021 hPa
Pregled: Vedro
Vidljivost: greater than 10 km
2022/08/11 01:00 LQSA 110100Z 30002KT CAVOK 17/15 Q1021
LDOS - Osijek, Hrvatksa
Ažurirano: 11/08/2022 03:30
Vedro
Vedro
 Pravac vetra S
Vetar: S 6 km/h
Temperatura: 14°C
Tačka rose: 11°C
Vlažnost: 82%
Pritisak: 1019 hPa
Pregled: Vedro
Vidljivost: greater than 10 km
2022/08/11 01:30 LDOS 110130Z 35003KT CAVOK 14/11 Q1019